Time;durP1;ratioP1;P1;durP2;ratioP2;P2;SDS_P1;SDS_P2;PMS_P1;PMS_P2;Temp;Humidity;BMP_temperature;BMP_pressure;BME280_temperature;BME280_humidity;BME280_pressure;Samples;Min_cycle;Max_cycle;Signal;HPM_P1;HPM_P2
2020/12/25 00:00:28;;;;;;;19.60;14.68;;;26.10;85.70;;;;;;6091145;23;20165;-89
2020/12/25 00:02:54;;;;;;;19.67;15.43;;;26.00;86.00;;;;;;6139560;23;20033;-91
2020/12/25 00:08:08;;;;;;;25.25;16.48;;;26.00;86.40;;;;;;6224486;23;20021;-90
2020/12/25 00:10:49;;;;;;;19.67;16.45;;;25.90;86.60;;;;;;6215500;23;20004;-91
2020/12/25 00:16:04;;;;;;;29.38;21.95;;;25.80;87.60;;;;;;6164404;23;20021;-88
2020/12/25 00:18:37;;;;;;;31.45;22.08;;;25.80;87.20;;;;;;6174593;23;20056;-92
2020/12/25 00:26:47;;;;;;;25.63;18.08;;;25.70;87.30;;;;;;6168262;23;20020;-88
2020/12/25 00:29:15;;;;;;;25.45;18.05;;;25.60;88.10;;;;;;6208001;23;20016;-89
2020/12/25 00:31:45;;;;;;;22.02;16.15;;;25.60;88.20;;;;;;6234392;23;20024;-88
2020/12/25 00:34:17;;;;;;;21.88;14.43;;;25.50;88.20;;;;;;6235090;23;19988;-88
2020/12/25 00:36:47;;;;;;;61.35;27.48;;;25.50;88.20;;;;;;6232733;23;20009;-90
2020/12/25 00:39:19;;;;;;;23.88;14.70;;;25.50;88.20;;;;;;6206682;23;19992;-90
2020/12/25 00:41:48;;;;;;;;;;;25.40;88.70;;;;;;6181769;23;20016;-89
2020/12/25 00:49:36;;;;;;;53.53;34.67;;;25.40;88.00;;;;;;6198182;23;20081;-93
2020/12/25 00:52:02;;;;;;;36.63;27.40;;;25.40;87.30;;;;;;6178456;23;20060;-91
2020/12/25 00:54:41;;;;;;;33.92;25.17;;;25.40;87.80;;;;;;6136515;23;20119;-91
2020/12/25 00:57:19;;;;;;;29.05;20.48;;;25.40;88.10;;;;;;6147129;23;20061;-92
2020/12/25 00:59:45;;;;;;;18.83;14.13;;;25.40;89.10;;;;;;6120698;23;20006;-91
2020/12/25 01:02:49;;;;;;;;;;;;;;;;;;;;;
2020/12/25 01:08:21;;;;;;;43.25;28.75;;;25.10;88.80;;;;;;6172601;23;20234;-92
2020/12/25 01:10:55;;;;;;;46.50;33.72;;;25.00;89.30;;;;;;6178218;23;19993;-87
2020/12/25 01:13:41;;;;;;;31.30;23.08;;;25.10;89.40;;;;;;6177486;23;20281;-90
2020/12/25 01:16:30;;;;;;;17.52;12.85;;;25.10;89.40;;;;;;6180035;23;20024;-91
2020/12/25 01:25:14;;;;;;;26.85;18.00;;;25.00;87.80;;;;;;6237405;23;20124;-91
2020/12/25 01:28:21;;;;;;;;;;;;;;;;;;;;;
2020/12/25 01:31:09;;;;;;;14.70;11.18;;;25.00;87.40;;;;;;6163621;23;20007;-92
2020/12/25 01:33:42;;;;;;;8.90;5.43;;;24.90;89.10;;;;;;6211173;23;19992;-93
2020/12/25 01:41:52;;;;;;;11.90;9.27;;;24.60;90.50;;;;;;6170305;23;20027;-91
2020/12/25 01:44:19;;;;;;;13.30;9.65;;;24.50;90.60;;;;;;6120688;23;20014;-91
2020/12/25 01:46:47;;;;;;;11.50;9.13;;;24.50;90.90;;;;;;6146201;23;19998;-91
2020/12/25 01:49:13;;;;;;;9.20;7.15;;;24.50;90.90;;;;;;6139920;23;20006;-92
2020/12/25 01:51:41;;;;;;;13.90;9.18;;;24.40;91.40;;;;;;6142165;23;20227;-93
2020/12/25 01:54:08;;;;;;;14.85;8.60;;;24.40;91.40;;;;;;6138538;23;19998;-92
2020/12/25 01:56:45;;;;;;;12.20;8.10;;;24.40;91.60;;;;;;6140077;23;19994;-90
2020/12/25 01:59:14;;;;;;;10.50;6.70;;;24.40;91.20;;;;;;6139699;23;19998;-91
2020/12/25 02:02:00;;;;;;;9.88;6.45;;;24.50;91.60;;;;;;6146347;23;20050;-93
2020/12/25 02:04:29;;;;;;;10.50;6.55;;;24.50;91.30;;;;;;6142005;23;20262;-91
2020/12/25 02:06:59;;;;;;;9.82;5.72;;;24.40;91.30;;;;;;6138801;23;19997;-90
2020/12/25 02:09:25;;;;;;;7.85;5.03;;;24.40;91.60;;;;;;6140340;23;19998;-90
2020/12/25 02:11:56;;;;;;;8.77;6.43;;;24.30;91.50;;;;;;6146278;23;19994;-91
2020/12/25 02:15:37;;;;;;;;;;;;;;;;;;;;;
2020/12/25 02:18:46;;;;;;;8.00;4.82;;;24.30;91.60;;;;;;6110976;23;20001;-91
2020/12/25 02:21:35;;;;;;;5.72;3.65;;;24.20;91.40;;;;;;6019310;23;20144;-93
2020/12/25 02:26:48;;;;;;;4.88;3.17;;;24.20;91.30;;;;;;6216644;23;20260;-94
2020/12/25 02:29:16;;;;;;;7.07;5.22;;;24.10;91.30;;;;;;6205595;23;20001;-91
2020/12/25 02:31:45;;;;;;;7.63;5.13;;;24.10;91.20;;;;;;6232358;23;19996;-91
2020/12/25 02:34:13;;;;;;;7.15;5.10;;;24.00;91.20;;;;;;6205337;23;20000;-92
2020/12/25 02:36:40;;;;;;;8.63;5.97;;;24.00;91.50;;;;;;6204832;23;20079;-91
2020/12/25 02:39:07;;;;;;;9.00;7.68;;;23.90;91.30;;;;;;6209320;23;20003;-93
2020/12/25 02:41:34;;;;;;;10.52;6.97;;;23.90;91.20;;;;;;6212940;23;20011;-90
2020/12/25 02:44:00;;;;;;;9.60;6.88;;;23.90;91.40;;;;;;6189201;23;20009;-94
2020/12/25 02:46:30;;;;;;;9.00;5.82;;;24.00;91.10;;;;;;6210737;23;19996;-94
2020/12/25 02:48:57;;;;;;;8.80;5.95;;;24.00;91.00;;;;;;6188112;23;20004;-94
2020/12/25 02:51:36;;;;;;;8.43;5.90;;;24.00;91.50;;;;;;6211147;23;20110;-95
2020/12/25 02:54:09;;;;;;;5.80;4.47;;;24.00;91.30;;;;;;6212071;23;19996;-91
2020/12/25 02:56:40;;;;;;;4.85;3.80;;;23.90;91.40;;;;;;6209597;23;20237;-91
2020/12/25 02:59:07;;;;;;;5.07;4.32;;;23.80;91.30;;;;;;6209963;23;19996;-93
2020/12/25 03:01:40;;;;;;;7.03;4.85;;;23.80;91.40;;;;;;6207377;23;20027;-92
2020/12/25 03:04:07;;;;;;;7.35;4.93;;;23.80;91.60;;;;;;6206608;23;20001;-91
2020/12/25 03:06:56;;;;;;;8.40;6.00;;;23.70;91.70;;;;;;6206837;23;20044;-94
2020/12/25 03:09:26;;;;;;;13.32;7.55;;;23.80;91.70;;;;;;6212035;22;20000;-95
2020/12/25 03:15:19;;;;;;;20.45;15.18;;;23.70;91.90;;;;;;6234834;23;20031;-94
2020/12/25 03:18:19;;;;;;;12.63;10.45;;;23.70;91.50;;;;;;6091553;23;20015;-93
2020/12/25 03:20:49;;;;;;;13.27;9.98;;;23.70;92.00;;;;;;6215306;23;20004;-92
2020/12/25 03:23:17;;;;;;;16.85;13.65;;;23.70;91.70;;;;;;6215979;23;20061;-93
2020/12/25 03:25:43;;;;;;;14.13;10.32;;;23.70;91.80;;;;;;6216897;23;20004;-92
2020/12/25 03:28:40;;;;;;;22.35;16.80;;;23.70;91.80;;;;;;6216901;23;20048;-93
2020/12/25 03:31:09;;;;;;;33.35;23.30;;;23.70;91.50;;;;;;6128551;23;20014;-91
2020/12/25 03:33:38;;;;;;;16.85;12.52;;;23.70;92.00;;;;;;6128057;23;20005;-92
2020/12/25 03:36:14;;;;;;;13.93;11.27;;;23.60;91.80;;;;;;6152802;23;20033;-92
2020/12/25 03:38:41;;;;;;;13.52;10.43;;;23.60;91.90;;;;;;6129268;23;20002;-92
2020/12/25 03:41:15;;;;;;;16.00;10.68;;;23.60;91.70;;;;;;6123642;23;20018;-92
2020/12/25 03:43:57;;;;;;;;;;;;;;;;;;;;;
2020/12/25 03:46:35;;;;;;;10.93;7.43;;;23.50;91.60;;;;;;6150245;23;19989;-92
2020/12/25 03:49:05;;;;;;;9.88;6.63;;;23.50;91.50;;;;;;6140461;23;20004;-92
2020/12/25 03:51:32;;;;;;;14.18;7.10;;;23.50;91.40;;;;;;6217253;23;20117;-93
2020/12/25 03:54:34;;;;;;;8.15;6.35;;;23.50;91.40;;;;;;6192698;23;20060;-93
2020/12/25 03:57:02;;;;;;;9.02;6.40;;;23.50;91.20;;;;;;6156464;23;19993;-95
2020/12/25 04:02:25;;;;;;;5.60;4.43;;;23.50;91.20;;;;;;6199716;23;20068;-91
2020/12/25 04:05:02;;;;;;;7.88;3.75;;;23.50;91.00;;;;;;6217289;23;20000;-92
2020/12/25 04:10:08;;;;;;;3.42;1.98;;;23.50;90.30;;;;;;6215692;23;20027;-94
2020/12/25 04:13:06;;;;;;;;;;;;;;;;;;;;;
2020/12/25 04:15:35;;;;;;;5.93;2.10;;;23.50;88.80;;;;;;6217519;23;20064;-89
2020/12/25 04:18:01;;;;;;;4.30;2.85;;;23.50;88.40;;;;;;6181928;23;20016;-89
2020/12/25 04:25:39;;;;;;;1.98;1.40;;;23.40;88.00;;;;;;6211898;23;20018;-88
2020/12/25 04:28:31;;;;;;;2.22;1.63;;;23.40;87.80;;;;;;6236273;23;20036;-87
2020/12/25 04:31:05;;;;;;;1.73;1.33;;;23.40;87.00;;;;;;6218320;23;20012;-90
2020/12/25 04:33:36;;;;;;;2.80;1.95;;;23.50;86.40;;;;;;6218433;23;20036;-89
2020/12/25 04:36:29;;;;;;;13.07;8.25;;;23.50;87.10;;;;;;6182615;23;20072;-89
2020/12/25 04:39:16;;;;;;;4.82;3.65;;;23.50;86.70;;;;;;6110579;23;20011;-88
2020/12/25 04:41:49;;;;;;;5.18;1.23;;;23.50;87.00;;;;;;6068290;23;19999;-88
2020/12/25 04:44:35;;;;;;;2.83;1.40;;;23.50;86.10;;;;;;6034613;23;20008;-89
2020/12/25 04:47:11;;;;;;;2.33;1.30;;;23.60;86.20;;;;;;6037212;23;20027;-88
2020/12/25 04:49:42;;;;;;;2.63;1.30;;;23.60;85.90;;;;;;6036828;23;20057;-89
2020/12/25 04:52:15;;;;;;;2.40;1.20;;;23.60;86.10;;;;;;6167953;23;20032;-87
2020/12/25 04:54:41;;;;;;;5.10;1.60;;;23.60;86.70;;;;;;6217740;23;20072;-87
2020/12/25 04:57:08;;;;;;;1.63;1.40;;;23.70;85.80;;;;;;6216360;23;20008;-87
2020/12/25 04:59:35;;;;;;;6.15;1.60;;;23.70;86.00;;;;;;6217440;23;19997;-88
2020/12/25 05:02:04;;;;;;;5.32;1.55;;;23.70;86.50;;;;;;6217527;23;20003;-91
2020/12/25 05:04:31;;;;;;;3.53;1.38;;;23.70;86.20;;;;;;6218676;23;20011;-89
2020/12/25 05:07:00;;;;;;;3.70;1.92;;;23.80;85.70;;;;;;6218522;23;19997;-88
2020/12/25 05:09:27;;;;;;;4.68;2.20;;;23.80;85.70;;;;;;6243522;23;20039;-86
2020/12/25 05:11:55;;;;;;;5.13;1.35;;;23.80;85.60;;;;;;6244323;23;19992;-89
2020/12/25 05:14:30;;;;;;;2.28;0.90;;;23.90;84.20;;;;;;6218496;23;19996;-87
2020/12/25 05:16:59;;;;;;;2.95;1.15;;;23.90;84.30;;;;;;6244228;23;20073;-90
2020/12/25 05:19:30;;;;;;;2.38;1.10;;;23.90;84.10;;;;;;6218199;23;20027;-86
2020/12/25 05:22:00;;;;;;;2.97;1.83;;;24.00;84.30;;;;;;6193867;23;20271;-90
2020/12/25 05:29:48;;;;;;;3.50;1.15;;;24.00;84.50;;;;;;6240709;23;20037;-88
2020/12/25 05:32:18;;;;;;;1.52;1.10;;;24.10;84.80;;;;;;6218769;23;20000;-89
2020/12/25 05:34:46;;;;;;;3.42;1.75;;;24.10;85.00;;;;;;6218665;23;19997;-89
2020/12/25 05:37:12;;;;;;;2.85;1.50;;;24.10;84.50;;;;;;6218645;23;19993;-90
2020/12/25 05:39:39;;;;;;;2.40;1.10;;;24.10;84.20;;;;;;6218185;23;19989;-89
2020/12/25 05:42:09;;;;;;;1.00;0.88;;;24.10;83.90;;;;;;6193760;23;20037;-86
2020/12/25 05:44:49;;;;;;;2.45;1.10;;;24.10;84.10;;;;;;6218358;23;20008;-86
2020/12/25 05:47:26;;;;;;;4.15;1.17;;;24.10;83.80;;;;;;6218333;23;20043;-88
2020/12/25 05:49:54;;;;;;;2.28;1.30;;;24.00;83.50;;;;;;6217695;23;20004;-90
2020/12/25 05:52:24;;;;;;;1.75;1.00;;;24.10;83.90;;;;;;6199308;23;20015;-87
2020/12/25 05:54:58;;;;;;;0.93;0.70;;;24.10;83.30;;;;;;6218862;23;20065;-89
2020/12/25 05:57:29;;;;;;;2.15;1.00;;;24.10;83.70;;;;;;6244229;23;20028;-88
2020/12/25 06:00:01;;;;;;;2.05;1.35;;;24.10;83.30;;;;;;6218602;23;19993;-85
2020/12/25 06:02:32;;;;;;;2.83;1.42;;;24.10;83.70;;;;;;6244345;23;20015;-90
2020/12/25 06:04:58;;;;;;;2.67;1.23;;;24.10;83.60;;;;;;6243831;23;19999;-88
2020/12/25 06:07:31;;;;;;;1.60;0.95;;;24.10;83.70;;;;;;6218491;23;19996;-85
2020/12/25 06:10:01;;;;;;;1.52;1.05;;;24.00;84.20;;;;;;6218841;23;20012;-84
2020/12/25 06:12:41;;;;;;;2.72;1.00;;;24.00;84.30;;;;;;6218417;23;20044;-90
2020/12/25 06:15:32;;;;;;;1.45;1.00;;;24.00;84.00;;;;;;6218329;23;19993;-85
2020/12/25 06:18:28;;;;;;;2.00;0.90;;;23.90;84.50;;;;;;6220950;23;20020;-86
2020/12/25 06:21:06;;;;;;;2.90;1.13;;;23.90;84.70;;;;;;6216762;23;20015;-89
2020/12/25 06:23:43;;;;;;;1.13;0.85;;;23.90;84.80;;;;;;6194961;23;20039;-88
2020/12/25 06:26:10;;;;;;;1.25;0.80;;;23.90;85.00;;;;;;6242311;23;19997;-87
2020/12/25 06:28:41;;;;;;;1.30;0.73;;;23.80;84.70;;;;;;6210130;23;20004;-89
2020/12/25 06:31:31;;;;;;;1.00;0.90;;;23.80;85.40;;;;;;6212349;23;20023;-88
2020/12/25 06:33:57;;;;;;;3.33;0.82;;;23.80;85.00;;;;;;6194932;23;20005;-87
2020/12/25 06:36:32;;;;;;;2.47;1.30;;;23.70;85.50;;;;;;6211897;23;20015;-89
2020/12/25 06:38:59;;;;;;;2.85;1.48;;;23.70;85.10;;;;;;6212306;23;20001;-90
2020/12/25 06:41:27;;;;;;;1.90;1.30;;;23.70;85.60;;;;;;6210184;23;20044;-88
2020/12/25 06:43:58;;;;;;;4.88;1.20;;;23.60;85.80;;;;;;6210225;23;20009;-88
2020/12/25 06:46:34;;;;;;;3.28;1.60;;;23.60;86.20;;;;;;6213393;23;20016;-88
2020/12/25 06:49:06;;;;;;;4.68;1.50;;;23.60;86.50;;;;;;6212256;23;20008;-89
2020/12/25 06:54:43;;;;;;;5.18;1.52;;;23.50;86.50;;;;;;6239739;23;19930;-89
2020/12/25 06:59:47;;;;;;;3.20;1.20;;;23.40;86.10;;;;;;6120368;23;20096;-87
2020/12/25 07:02:16;;;;;;;5.88;1.40;;;23.40;86.20;;;;;;6118978;23;20066;-88
2020/12/25 07:04:43;;;;;;;3.25;1.17;;;23.40;86.40;;;;;;6119756;23;20040;-89
2020/12/25 07:07:10;;;;;;;2.53;1.17;;;23.40;86.20;;;;;;6118241;23;20017;-88
2020/12/25 07:09:46;;;;;;;1.65;1.10;;;23.30;86.80;;;;;;6118896;23;20306;-88
2020/12/25 07:12:23;;;;;;;2.20;1.30;;;23.30;87.00;;;;;;6117749;23;20164;-88
2020/12/25 07:14:50;;;;;;;2.22;1.30;;;23.20;86.40;;;;;;6118625;23;19998;-89
2020/12/25 07:17:27;;;;;;;3.28;1.27;;;23.20;86.50;;;;;;6118366;23;19991;-87
2020/12/25 07:19:54;;;;;;;1.77;1.58;;;23.20;86.60;;;;;;6123556;23;20053;-88
2020/12/25 07:22:22;;;;;;;3.72;1.70;;;23.30;86.50;;;;;;6182708;23;20009;-87
2020/12/25 07:24:49;;;;;;;2.90;1.17;;;23.30;86.50;;;;;;6239575;23;19996;-88
2020/12/25 07:27:16;;;;;;;2.70;1.40;;;23.30;86.00;;;;;;6214115;23;20027;-89
2020/12/25 07:33:05;;;;;;;4.22;1.17;;;23.20;85.80;;;;;;6239448;23;20115;-88
2020/12/25 07:35:33;;;;;;;2.65;0.80;;;23.30;85.50;;;;;;6212412;23;20000;-87
2020/12/25 07:38:00;;;;;;;0.75;0.60;;;23.30;85.50;;;;;;6191771;23;20000;-88
2020/12/25 07:40:27;;;;;;;1.52;0.85;;;23.30;85.90;;;;;;6184722;23;20028;-89
2020/12/25 07:45:23;;;;;;;2.90;0.73;;;23.30;85.40;;;;;;6181734;23;20065;-90
2020/12/25 07:47:54;;;;;;;1.77;0.80;;;23.30;85.60;;;;;;6152893;23;20048;-89
2020/12/25 07:50:20;;;;;;;1.98;0.70;;;23.30;85.70;;;;;;6154912;23;20005;-89
2020/12/25 07:52:49;;;;;;;3.05;0.88;;;23.30;85.50;;;;;;6155624;23;19998;-88
2020/12/25 07:55:23;;;;;;;3.17;0.90;;;23.30;85.70;;;;;;6143250;23;20000;-90
2020/12/25 07:57:51;;;;;;;4.13;1.27;;;23.30;85.80;;;;;;6143202;23;20062;-90
2020/12/25 08:00:18;;;;;;;2.85;1.05;;;23.30;85.60;;;;;;6145487;23;19994;-90
2020/12/25 08:02:44;;;;;;;2.80;1.00;;;23.20;85.80;;;;;;6143646;23;20048;-90
2020/12/25 08:05:11;;;;;;;2.33;1.40;;;23.20;85.90;;;;;;6143489;23;19994;-90
2020/12/25 08:07:44;;;;;;;2.95;1.52;;;23.20;86.10;;;;;;6142946;23;20072;-90
2020/12/25 08:10:13;;;;;;;1.77;1.10;;;23.20;86.30;;;;;;6142479;23;20024;-90
2020/12/25 08:12:49;;;;;;;1.38;1.27;;;23.20;86.00;;;;;;6141992;23;20178;-90
2020/12/25 08:15:18;;;;;;;3.53;1.20;;;23.20;86.00;;;;;;6142851;23;20305;-89
2020/12/25 08:17:48;;;;;;;1.67;1.17;;;23.20;86.00;;;;;;6142378;23;20052;-90
2020/12/25 08:20:15;;;;;;;2.42;1.10;;;23.20;86.10;;;;;;6142467;23;20289;-90
2020/12/25 08:22:42;;;;;;;1.73;0.80;;;23.20;86.10;;;;;;6168255;23;20020;-89
2020/12/25 08:25:11;;;;;;;2.75;0.88;;;23.20;86.10;;;;;;6168519;23;19989;-89
2020/12/25 08:27:38;;;;;;;2.03;1.00;;;23.20;86.20;;;;;;6142661;23;19993;-89
2020/12/25 08:30:06;;;;;;;1.38;0.90;;;23.20;86.30;;;;;;6168471;23;19994;-89
2020/12/25 08:32:34;;;;;;;1.48;1.13;;;23.20;86.40;;;;;;6143065;23;19989;-90
2020/12/25 08:35:14;;;;;;;1.13;0.80;;;23.20;86.50;;;;;;6169151;23;19989;-89
2020/12/25 08:38:02;;;;;;;4.03;1.52;;;23.10;86.20;;;;;;6168449;23;20004;-89
2020/12/25 08:40:36;;;;;;;5.03;1.30;;;23.10;86.20;;;;;;6143880;23;20048;-89
2020/12/25 08:43:17;;;;;;;2.17;1.00;;;23.10;86.50;;;;;;6198554;23;20073;-90
2020/12/25 08:46:00;;;;;;;2.58;1.00;;;23.10;86.90;;;;;;6172830;23;20060;-89
2020/12/25 08:48:28;;;;;;;1.45;1.02;;;23.10;86.70;;;;;;6198661;23;20005;-89
2020/12/25 08:51:11;;;;;;;4.93;1.08;;;23.10;86.80;;;;;;6172855;23;20036;-90
2020/12/25 08:53:42;;;;;;;2.15;0.80;;;23.10;86.80;;;;;;6172541;23;20007;-90
2020/12/25 08:56:19;;;;;;;1.45;0.80;;;23.10;86.80;;;;;;6172289;23;19999;-91
2020/12/25 08:59:07;;;;;;;1.88;1.10;;;23.10;87.10;;;;;;6165101;23;20013;-90
2020/12/25 09:01:38;;;;;;;1.17;0.85;;;23.00;87.30;;;;;;6177010;23;19993;-87
2020/12/25 09:04:05;;;;;;;1.55;0.77;;;23.00;87.20;;;;;;6174353;23;20008;-90
2020/12/25 09:06:34;;;;;;;4.15;1.00;;;23.00;87.50;;;;;;6177388;23;20024;-88
2020/12/25 09:09:01;;;;;;;1.85;0.90;;;23.00;87.70;;;;;;6172630;23;20031;-89
2020/12/25 09:11:27;;;;;;;1.42;0.73;;;23.00;87.30;;;;;;6171105;23;19993;-90
2020/12/25 09:13:54;;;;;;;3.58;0.90;;;23.00;87.30;;;;;;6172079;23;19997;-90
2020/12/25 09:19:47;;;;;;;3.40;1.17;;;23.00;87.60;;;;;;6191302;23;20035;-93
2020/12/25 09:30:24;;;;;;;2.97;2.63;;;23.00;88.60;;;;;;6208190;23;19931;-94
2020/12/25 10:38:23;;;;;;;2.45;1.10;;;22.90;87.80;;;;;;6211299;22;20020;-92
2020/12/25 10:41:04;;;;;;;;;;;;;;;;;;;;;
2020/12/25 10:44:12;;;;;;;2.13;1.10;;;22.80;88.00;;;;;;6139064;23;20005;-90
2020/12/25 11:46:59;;;;;;;2.53;0.90;;;23.70;84.70;;;;;;6146706;23;20069;-92
2020/12/25 11:49:33;;;;;;;2.22;1.27;;;23.80;84.30;;;;;;6116135;23;20298;-93
2020/12/25 11:52:17;;;;;;;4.80;1.20;;;23.90;84.10;;;;;;6140810;23;20010;-88
2020/12/25 11:54:59;;;;;;;3.97;1.50;;;24.00;84.30;;;;;;6141289;23;20008;-91
2020/12/25 11:57:43;;;;;;;2.55;1.45;;;24.10;84.80;;;;;;6150941;23;20029;-90
2020/12/25 12:00:29;;;;;;;2.85;1.40;;;24.20;84.40;;;;;;6146299;23;20297;-90
2020/12/25 12:18:59;;;;;;;4.60;1.50;;;24.50;83.50;;;;;;6199904;22;19908;-93
2020/12/25 12:30:17;;;;;;;3.25;1.08;;;25.10;81.80;;;;;;6262713;23;20082;-92
2020/12/25 12:33:13;;;;;;;2.80;1.55;;;25.30;81.40;;;;;;6242030;23;20012;-96
2020/12/25 12:43:50;;;;;;;1.27;0.73;;;26.00;78.50;;;;;;6263077;23;20016;-92
2020/12/25 12:46:17;;;;;;;1.38;0.77;;;26.30;77.80;;;;;;6234286;23;20292;-90
2020/12/25 12:49:15;;;;;;;2.50;0.90;;;26.40;78.30;;;;;;6240218;23;20003;-93
2020/12/25 12:55:10;;;;;;;1.27;0.68;;;27.00;75.50;;;;;;6221908;23;20304;-94
2020/12/25 12:57:45;;;;;;;2.83;0.80;;;27.00;75.70;;;;;;6233838;23;20009;-92
2020/12/25 13:00:15;;;;;;;1.63;0.63;;;26.90;77.00;;;;;;6236483;23;20051;-94
2020/12/25 13:02:45;;;;;;;2.38;0.95;;;26.80;75.90;;;;;;6201229;23;20000;-93
2020/12/25 13:05:17;;;;;;;4.88;1.50;;;26.70;75.90;;;;;;6202242;23;20000;-93
2020/12/25 13:07:54;;;;;;;5.57;2.45;;;26.60;76.90;;;;;;6206899;23;20005;-94
2020/12/25 13:10:22;;;;;;;7.55;3.20;;;26.90;77.60;;;;;;6181245;23;20242;-94
2020/12/25 13:13:42;;;;;;;6.97;3.17;;;27.20;76.40;;;;;;6208528;23;19993;-91
2020/12/25 13:16:44;;;;;;;5.55;3.00;;;27.30;76.00;;;;;;6185522;23;20005;-96
2020/12/25 13:22:16;;;;;;;;;;;;;;;;;;;;;
2020/12/25 13:24:57;;;;;;;3.03;1.33;;;28.40;74.80;;;;;;6142141;23;20021;-93
2020/12/25 13:27:42;;;;;;;6.00;2.00;;;28.70;74.40;;;;;;6187693;23;20007;-92
2020/12/25 13:40:49;;;;;;;5.22;1.00;;;29.70;72.40;;;;;;6198268;23;20011;-95
2020/12/25 13:44:06;;;;;;;2.72;1.08;;;29.70;70.20;;;;;;6173945;23;20013;-95
2020/12/25 13:46:53;;;;;;;2.97;1.05;;;29.80;70.80;;;;;;6189238;23;20076;-94
2020/12/25 13:49:19;;;;;;;2.47;1.10;;;30.10;71.30;;;;;;6200619;23;20005;-94
2020/12/25 13:51:46;;;;;;;4.55;2.50;;;30.50;71.30;;;;;;6175001;23;20023;-94
2020/12/25 13:56:49;;;;;;;3.58;1.40;;;31.10;69.50;;;;;;6148182;23;20069;-91
2020/12/25 13:59:21;;;;;;;5.93;1.42;;;31.40;66.70;;;;;;6125296;23;20021;-93
2020/12/25 14:01:49;;;;;;;1.73;0.70;;;32.00;65.70;;;;;;6121212;23;20012;-93
2020/12/25 14:04:16;;;;;;;1.88;0.80;;;31.80;64.50;;;;;;6123120;23;20006;-88
2020/12/25 14:06:44;;;;;;;4.75;1.20;;;31.70;64.40;;;;;;6117715;23;20005;-92
2020/12/25 14:09:11;;;;;;;3.80;1.30;;;32.00;65.50;;;;;;6096641;23;20016;-94
2020/12/25 14:11:46;;;;;;;1.85;0.90;;;31.80;64.60;;;;;;6096122;23;19998;-94
2020/12/25 14:18:02;;;;;;;1.73;1.08;;;32.00;63.30;;;;;;6088277;23;20083;-96
2020/12/25 14:36:44;;;;;;;4.10;1.10;;;32.50;62.20;;;;;;6214217;22;20126;-96
2020/12/25 15:18:14;;;;;;;5.85;1.40;;;31.80;62.50;;;;;;6177333;23;20100;-96
2020/12/25 15:21:37;;;;;;;13.75;3.08;;;31.90;62.10;;;;;;6211844;23;20023;-95
2020/12/25 15:24:34;;;;;;;9.65;1.95;;;32.40;61.20;;;;;;6236727;23;20007;-96
2020/12/25 15:33:02;;;;;;;3.70;1.00;;;32.70;63.10;;;;;;6208393;23;20020;-93
2020/12/25 15:36:01;;;;;;;17.63;1.60;;;32.40;63.40;;;;;;6114802;23;20234;-96
2020/12/25 15:49:23;;;;;;;5.07;2.45;;;33.30;58.40;;;;;;6221016;22;20008;-94
2020/12/25 15:51:55;;;;;;;3.28;1.70;;;32.70;60.30;;;;;;6270024;22;20241;-92
2020/12/25 15:54:22;;;;;;;6.32;2.10;;;32.60;61.40;;;;;;6237162;22;20119;-93
2020/12/25 16:03:01;;;;;;;4.18;1.58;;;32.20;59.60;;;;;;6149681;23;20050;-94
2020/12/25 16:09:50;;;;;;;14.63;2.15;;;32.60;61.70;;;;;;6209658;23;20027;-92
2020/12/25 16:13:08;;;;;;;11.35;2.13;;;33.20;60.60;;;;;;6205032;23;20004;-92
2020/12/25 16:15:36;;;;;;;8.82;2.60;;;33.60;58.90;;;;;;6184169;23;20064;-92
2020/12/25 16:20:47;;;;;;;13.02;2.90;;;33.10;61.60;;;;;;6223091;23;20020;-94
2020/12/25 16:34:34;;;;;;;6.07;2.20;;;33.30;60.80;;;;;;6138164;23;20028;-91
2020/12/25 16:37:07;;;;;;;2.80;1.55;;;33.10;60.50;;;;;;6164762;22;20017;-94
2020/12/25 16:43:44;;;;;;;5.10;2.40;;;33.10;63.00;;;;;;6205334;23;20016;-90
2020/12/25 16:48:50;;;;;;;17.05;3.80;;;33.30;59.00;;;;;;6247826;22;20012;-90
2020/12/25 16:51:34;;;;;;;6.68;3.03;;;33.60;57.50;;;;;;6237905;23;19984;-92
2020/12/25 16:54:20;;;;;;;7.13;2.05;;;33.60;60.10;;;;;;6204820;23;20013;-90
2020/12/25 16:56:58;;;;;;;11.60;2.50;;;33.70;59.80;;;;;;6192132;22;20021;-92
2020/12/25 16:59:32;;;;;;;6.13;2.35;;;34.10;60.00;;;;;;6226351;23;20039;-90
2020/12/25 17:02:15;;;;;;;4.78;2.28;;;33.70;59.10;;;;;;6236318;23;20055;-91
2020/12/25 17:04:54;;;;;;;3.85;1.83;;;33.50;60.90;;;;;;6267767;23;20051;-92
2020/12/25 17:07:46;;;;;;;3.65;1.70;;;34.30;60.30;;;;;;6235085;23;19996;-89
2020/12/25 17:10:24;;;;;;;8.00;1.90;;;34.50;58.20;;;;;;6239179;23;20000;-90
2020/12/25 17:12:51;;;;;;;15.82;2.15;;;34.40;57.80;;;;;;6207575;23;19997;-92
2020/12/25 17:19:18;;;;;;;7.43;1.60;;;34.30;58.50;;;;;;6204656;23;20092;-91
2020/12/25 17:21:45;;;;;;;7.32;1.83;;;34.20;58.70;;;;;;6177894;23;20001;-92
2020/12/25 17:26:54;;;;;;;10.60;2.20;;;33.90;57.60;;;;;;6235875;23;20016;-91
2020/12/25 17:46:47;;;;;;;18.60;2.05;;;31.90;64.70;;;;;;6230344;22;20036;-91
2020/12/25 17:49:19;;;;;;;38.55;3.83;;;32.40;64.10;;;;;;6242590;23;20012;-92
2020/12/25 17:52:58;;;;;;;10.07;1.50;;;32.90;62.20;;;;;;6218686;23;20130;-90
2020/12/25 17:58:06;;;;;;;;;;;33.60;60.00;;;;;;6234084;22;20227;-92
2020/12/25 18:05:56;;;;;;;26.20;4.38;;;32.70;63.60;;;;;;6184589;23;20196;-90
2020/12/25 18:11:44;;;;;;;12.48;1.67;;;31.80;64.80;;;;;;6265025;23;20007;-92
2020/12/25 18:14:44;;;;;;;6.50;2.00;;;31.70;63.90;;;;;;6236465;23;20036;-90
2020/12/25 18:17:16;;;;;;;12.30;2.75;;;31.50;66.20;;;;;;6238392;23;20008;-90
2020/12/25 18:20:28;;;;;;;6.82;2.60;;;31.40;66.10;;;;;;6237589;23;19999;-92
2020/12/25 18:22:55;;;;;;;10.45;2.22;;;31.20;66.30;;;;;;6176292;23;20007;-87
2020/12/25 18:27:57;;;;;;;5.68;1.73;;;31.00;68.30;;;;;;6251364;22;20227;-93
2020/12/25 18:30:35;;;;;;;4.32;2.70;;;31.20;68.40;;;;;;6238471;23;20009;-94
2020/12/25 18:33:30;;;;;;;5.68;3.53;;;31.30;68.20;;;;;;6236867;22;20009;-91
2020/12/25 18:40:12;;;;;;;8.88;1.40;;;31.40;67.20;;;;;;6268152;22;20291;-92
2020/12/25 18:45:52;;;;;;;5.10;1.50;;;31.50;64.50;;;;;;6245911;22;20289;-94
2020/12/25 18:48:29;;;;;;;9.80;1.50;;;31.30;66.20;;;;;;6241803;23;20012;-89
2020/12/25 18:51:40;;;;;;;11.82;1.40;;;31.20;66.70;;;;;;6243695;23;19996;-91
2020/12/25 18:54:11;;;;;;;3.25;1.30;;;31.30;66.90;;;;;;6236120;23;19992;-91
2020/12/25 18:56:43;;;;;;;8.82;1.75;;;31.20;65.40;;;;;;6237173;23;20072;-87
2020/12/25 18:59:13;;;;;;;;;;;31.00;65.50;;;;;;6236132;23;20007;-91
2020/12/25 19:01:40;;;;;;;5.03;2.13;;;30.90;65.20;;;;;;6234022;23;19904;-90
2020/12/25 19:04:10;;;;;;;5.18;2.53;;;30.90;65.10;;;;;;6234692;23;20000;-94
2020/12/25 19:06:38;;;;;;;6.53;3.38;;;30.90;67.20;;;;;;6234152;23;20000;-90
2020/12/25 19:12:16;;;;;;;5.88;3.30;;;30.90;65.70;;;;;;6216701;22;20099;-94
2020/12/25 19:14:43;;;;;;;166.68;109.38;;;31.00;68.00;;;;;;6234523;23;20058;-91
2020/12/25 19:17:09;;;;;;;38.33;22.83;;;31.20;65.90;;;;;;6232883;23;20067;-90
2020/12/25 19:19:36;;;;;;;12.93;5.30;;;31.30;67.10;;;;;;6231123;23;20003;-88
2020/12/25 19:22:05;;;;;;;8.25;3.30;;;31.50;67.40;;;;;;6232621;23;19996;-90
2020/12/25 19:24:46;;;;;;;17.83;3.40;;;31.70;68.00;;;;;;6234730;23;20004;-87
2020/12/25 19:27:17;;;;;;;8.50;2.15;;;31.70;65.40;;;;;;6235097;23;20008;-88
2020/12/25 19:33:31;;;;;;;14.07;2.60;;;31.80;66.20;;;;;;6172093;23;20030;-89
2020/12/25 19:48:55;;;;;;;11.88;3.75;;;31.00;66.80;;;;;;6245820;22;20021;-91
2020/12/25 19:55:00;;;;;;;5.25;2.60;;;31.30;68.80;;;;;;6235077;23;20019;-91
2020/12/25 19:57:36;;;;;;;3.92;1.45;;;31.30;69.30;;;;;;6210914;23;20009;-90
2020/12/25 20:03:28;;;;;;;5.82;2.40;;;30.90;70.70;;;;;;6238190;23;20008;-91
2020/12/25 20:06:36;;;;;;;;;;;;;;;;;;;;;
2020/12/25 20:09:12;;;;;;;8.63;4.40;;;30.70;72.00;;;;;;6196870;23;20016;-90
2020/12/25 20:24:00;;;;;;;4.65;2.30;;;30.50;71.90;;;;;;6244700;22;20047;-90
2020/12/25 20:29:28;;;;;;;3.88;1.88;;;30.20;73.80;;;;;;6242754;22;20012;-87
2020/12/25 20:35:17;;;;;;;5.47;1.83;;;30.00;74.20;;;;;;6254275;22;20089;-92
2020/12/25 20:41:38;;;;;;;8.25;4.10;;;29.80;74.90;;;;;;6269660;22;20019;-90
2020/12/25 20:44:09;;;;;;;;;;;29.70;75.60;;;;;;6266355;23;19988;-91
2020/12/25 20:47:24;;;;;;;5.13;2.92;;;29.60;75.60;;;;;;6191529;23;19904;-89
2020/12/25 20:50:01;;;;;;;3.97;1.67;;;29.50;76.20;;;;;;6239151;23;20001;-92
2020/12/25 21:00:24;;;;;;;;;;;;;;;;;;;;;
2020/12/25 21:06:47;;;;;;;4.68;2.45;;;29.10;77.30;;;;;;6049633;23;20004;-90
2020/12/25 21:38:43;;;;;;;4.60;1.80;;;28.90;78.60;;;;;;6260840;22;19919;-90
2020/12/25 21:41:58;;;;;;;5.15;1.70;;;28.90;78.50;;;;;;6222437;23;20016;-88
2020/12/25 21:54:22;;;;;;;2.45;1.23;;;28.90;77.70;;;;;;6267919;23;20064;-91
2020/12/25 21:56:51;;;;;;;6.55;1.70;;;28.80;78.00;;;;;;6216613;23;20009;-90
2020/12/25 21:59:20;;;;;;;5.63;1.90;;;28.70;78.20;;;;;;6241399;23;20004;-91
2020/12/25 22:01:57;;;;;;;4.90;1.80;;;28.60;78.40;;;;;;6238393;23;20176;-89